sensor_id;sensor_type;location;lat;lon;timestamp;pressure;altitude;pressure_sealevel;temperature;humidity
10348;BME280;5220;43.192;23.284;2023-07-30T00:00:58;96720.91;;;23.04;100.00
10348;BME280;5220;43.192;23.284;2023-07-30T00:03:25;96723.78;;;23.03;100.00
10348;BME280;5220;43.192;23.284;2023-07-30T00:05:53;96723.31;;;22.93;100.00
10348;BME280;5220;43.192;23.284;2023-07-30T00:08:20;96723.50;;;22.91;100.00
10348;BME280;5220;43.192;23.284;2023-07-30T00:10:47;96709.00;;;22.87;100.00
10348;BME280;5220;43.192;23.284;2023-07-30T00:13:15;96725.47;;;22.83;100.00
10348;BME280;5220;43.192;23.284;2023-07-30T00:15:41;96723.84;;;22.82;100.00
10348;BME280;5220;43.192;23.284;2023-07-30T00:18:08;96714.84;;;22.83;100.00
10348;BME280;5220;43.192;23.284;2023-07-30T00:20:35;96717.72;;;22.81;100.00
10348;BME280;5220;43.192;23.284;2023-07-30T00:23:02;96720.13;;;22.76;100.00
10348;BME280;5220;43.192;23.284;2023-07-30T00:25:28;96714.19;;;22.74;100.00
10348;BME280;5220;43.192;23.284;2023-07-30T00:27:55;96710.94;;;22.72;100.00
10348;BME280;5220;43.192;23.284;2023-07-30T00:30:23;96712.50;;;22.67;100.00
10348;BME280;5220;43.192;23.284;2023-07-30T00:32:50;96711.50;;;22.68;100.00
10348;BME280;5220;43.192;23.284;2023-07-30T00:35:17;96702.53;;;22.69;100.00
10348;BME280;5220;43.192;23.284;2023-07-30T00:37:44;96703.53;;;22.68;100.00
10348;BME280;5220;43.192;23.284;2023-07-30T00:40:11;96705.09;;;22.62;100.00
10348;BME280;5220;43.192;23.284;2023-07-30T00:42:39;96699.97;;;22.61;100.00
10348;BME280;5220;43.192;23.284;2023-07-30T00:45:07;96711.78;;;22.58;100.00
10348;BME280;5220;43.192;23.284;2023-07-30T00:47:36;96716.47;;;22.56;100.00
10348;BME280;5220;43.192;23.284;2023-07-30T00:50:05;96715.47;;;22.57;100.00
10348;BME280;5220;43.192;23.284;2023-07-30T00:52:32;96719.13;;;22.56;100.00
10348;BME280;5220;43.192;23.284;2023-07-30T00:55:02;96713.78;;;22.49;100.00
10348;BME280;5220;43.192;23.284;2023-07-30T00:57:29;96710.91;;;22.51;100.00
10348;BME280;5220;43.192;23.284;2023-07-30T00:59:57;96711.94;;;22.50;100.00
10348;BME280;5220;43.192;23.284;2023-07-30T01:02:24;96713.38;;;22.52;100.00
10348;BME280;5220;43.192;23.284;2023-07-30T01:04:52;96718.63;;;22.46;100.00
10348;BME280;5220;43.192;23.284;2023-07-30T01:07:19;96714.53;;;22.43;100.00
10348;BME280;5220;43.192;23.284;2023-07-30T01:09:45;96712.50;;;22.45;100.00
10348;BME280;5220;43.192;23.284;2023-07-30T01:12:13;96720.47;;;22.45;100.00
10348;BME280;5220;43.192;23.284;2023-07-30T01:14:41;96714.22;;;22.53;100.00
10348;BME280;5220;43.192;23.284;2023-07-30T01:17:08;96714.00;;;22.55;100.00
10348;BME280;5220;43.192;23.284;2023-07-30T01:19:36;96709.53;;;22.55;100.00
10348;BME280;5220;43.192;23.284;2023-07-30T01:22:04;96712.81;;;22.57;100.00
10348;BME280;5220;43.192;23.284;2023-07-30T01:24:31;96708.53;;;22.56;100.00
10348;BME280;5220;43.192;23.284;2023-07-30T01:27:01;96705.66;;;22.58;100.00
10348;BME280;5220;43.192;23.284;2023-07-30T01:29:33;96712.19;;;22.55;100.00
10348;BME280;5220;43.192;23.284;2023-07-30T01:32:07;96714.22;;;22.53;100.00
10348;BME280;5220;43.192;23.284;2023-07-30T01:34:35;96719.69;;;22.51;100.00
10348;BME280;5220;43.192;23.284;2023-07-30T01:37:05;96707.84;;;22.47;100.00
10348;BME280;5220;43.192;23.284;2023-07-30T01:39:35;96705.31;;;22.39;100.00
10348;BME280;5220;43.192;23.284;2023-07-30T01:42:04;96713.53;;;22.44;100.00
10348;BME280;5220;43.192;23.284;2023-07-30T01:44:30;96714.53;;;22.43;100.00
10348;BME280;5220;43.192;23.284;2023-07-30T01:46:57;96715.16;;;22.45;100.00
10348;BME280;5220;43.192;23.284;2023-07-30T01:49:24;96712.44;;;22.39;100.00
10348;BME280;5220;43.192;23.284;2023-07-30T01:51:50;96717.56;;;22.40;100.00
10348;BME280;5220;43.192;23.284;2023-07-30T01:54:18;96714.72;;;22.42;100.00
10348;BME280;5220;43.192;23.284;2023-07-30T01:56:45;96718.84;;;22.44;100.00
10348;BME280;5220;43.192;23.284;2023-07-30T01:59:12;96714.09;;;22.40;100.00
10348;BME280;5220;43.192;23.284;2023-07-30T02:01:39;96715.75;;;22.41;100.00
10348;BME280;5220;43.192;23.284;2023-07-30T02:04:05;96712.03;;;22.35;100.00
10348;BME280;5220;43.192;23.284;2023-07-30T02:06:32;96716.06;;;22.31;100.00
10348;BME280;5220;43.192;23.284;2023-07-30T02:08:59;96714.63;;;22.29;100.00
10348;BME280;5220;43.192;23.284;2023-07-30T02:11:27;96715.63;;;22.28;100.00
10348;BME280;5220;43.192;23.284;2023-07-30T02:13:53;96713.34;;;22.25;100.00
10348;BME280;5220;43.192;23.284;2023-07-30T02:16:20;96713.13;;;22.20;100.00
10348;BME280;5220;43.192;23.284;2023-07-30T02:18:47;96707.38;;;22.16;100.00
10348;BME280;5220;43.192;23.284;2023-07-30T02:21:14;96711.84;;;22.16;100.00
10348;BME280;5220;43.192;23.284;2023-07-30T02:23:40;96712.84;;;22.15;100.00
10348;BME280;5220;43.192;23.284;2023-07-30T02:26:07;96717.53;;;22.13;100.00
10348;BME280;5220;43.192;23.284;2023-07-30T02:28:35;96715.06;;;22.11;100.00
10348;BME280;5220;43.192;23.284;2023-07-30T02:31:02;96718.72;;;22.10;100.00
10348;BME280;5220;43.192;23.284;2023-07-30T02:33:28;96719.91;;;22.08;100.00
10348;BME280;5220;43.192;23.284;2023-07-30T02:35:55;96722.94;;;22.05;100.00
10348;BME280;5220;43.192;23.284;2023-07-30T02:38:22;96720.50;;;22.03;100.00
10348;BME280;5220;43.192;23.284;2023-07-30T02:40:48;96719.66;;;22.03;100.00
10348;BME280;5220;43.192;23.284;2023-07-30T02:43:15;96715.38;;;22.02;100.00
10348;BME280;5220;43.192;23.284;2023-07-30T02:45:46;96714.94;;;21.98;100.00
10348;BME280;5220;43.192;23.284;2023-07-30T02:48:13;96722.63;;;21.93;100.00
10348;BME280;5220;43.192;23.284;2023-07-30T02:50:40;96721.78;;;21.92;100.00
10348;BME280;5220;43.192;23.284;2023-07-30T02:53:07;96724.28;;;21.94;100.00
10348;BME280;5220;43.192;23.284;2023-07-30T02:55:33;96728.75;;;21.93;100.00
10348;BME280;5220;43.192;23.284;2023-07-30T02:58:00;96726.91;;;21.94;100.00
10348;BME280;5220;43.192;23.284;2023-07-30T03:00:27;96723.63;;;21.92;100.00
10348;BME280;5220;43.192;23.284;2023-07-30T03:02:56;96725.00;;;21.88;100.00
10348;BME280;5220;43.192;23.284;2023-07-30T03:05:23;96729.47;;;21.87;100.00
10348;BME280;5220;43.192;23.284;2023-07-30T03:07:49;96733.78;;;21.88;100.00
10348;BME280;5220;43.192;23.284;2023-07-30T03:10:16;96727.47;;;21.89;100.00
10348;BME280;5220;43.192;23.284;2023-07-30T03:12:43;96727.63;;;21.88;100.00
10348;BME280;5220;43.192;23.284;2023-07-30T03:15:09;96735.41;;;21.89;100.00
10348;BME280;5220;43.192;23.284;2023-07-30T03:17:36;96729.00;;;21.84;100.00
10348;BME280;5220;43.192;23.284;2023-07-30T03:20:06;96732.66;;;21.83;100.00
10348;BME280;5220;43.192;23.284;2023-07-30T03:22:32;96730.47;;;21.86;100.00
10348;BME280;5220;43.192;23.284;2023-07-30T03:24:59;96729.94;;;21.91;100.00
10348;BME280;5220;43.192;23.284;2023-07-30T03:27:26;96729.28;;;21.89;100.00
10348;BME280;5220;43.192;23.284;2023-07-30T03:29:52;96739.72;;;21.90;100.00
10348;BME280;5220;43.192;23.284;2023-07-30T03:32:19;96731.94;;;21.89;100.00
10348;BME280;5220;43.192;23.284;2023-07-30T03:34:46;96732.28;;;21.86;100.00
10348;BME280;5220;43.192;23.284;2023-07-30T03:37:14;96731.50;;;21.85;100.00
10348;BME280;5220;43.192;23.284;2023-07-30T03:39:41;96730.66;;;21.85;100.00
10348;BME280;5220;43.192;23.284;2023-07-30T03:42:07;96731.50;;;21.85;100.00
10348;BME280;5220;43.192;23.284;2023-07-30T03:44:34;96729.84;;;21.84;100.00
10348;BME280;5220;43.192;23.284;2023-07-30T03:47:01;96729.47;;;21.87;100.00
10348;BME280;5220;43.192;23.284;2023-07-30T03:49:28;96730.94;;;21.90;100.00
10348;BME280;5220;43.192;23.284;2023-07-30T03:51:54;96729.94;;;21.91;100.00
10348;BME280;5220;43.192;23.284;2023-07-30T03:54:22;96727.91;;;21.93;100.00
10348;BME280;5220;43.192;23.284;2023-07-30T03:56:49;96740.16;;;21.94;100.00
10348;BME280;5220;43.192;23.284;2023-07-30T03:59:16;96741.78;;;21.95;100.00
10348;BME280;5220;43.192;23.284;2023-07-30T04:01:42;96739.72;;;21.90;100.00
10348;BME280;5220;43.192;23.284;2023-07-30T04:04:09;96738.50;;;21.93;100.00
10348;BME280;5220;43.192;23.284;2023-07-30T04:06:36;96738.13;;;21.96;100.00
10348;BME280;5220;43.192;23.284;2023-07-30T04:09:03;96738.78;;;21.98;100.00
10348;BME280;5220;43.192;23.284;2023-07-30T04:11:31;96737.59;;;22.01;100.00
10348;BME280;5220;43.192;23.284;2023-07-30T04:13:57;96732.91;;;22.03;100.00
10348;BME280;5220;43.192;23.284;2023-07-30T04:16:24;96743.34;;;22.04;100.00
10348;BME280;5220;43.192;23.284;2023-07-30T04:18:51;96739.03;;;22.03;100.00
10348;BME280;5220;43.192;23.284;2023-07-30T04:21:17;96733.97;;;22.08;100.00
10348;BME280;5220;43.192;23.284;2023-07-30T04:23:44;96740.72;;;22.11;100.00
10348;BME280;5220;43.192;23.284;2023-07-30T04:26:11;96743.00;;;22.14;100.00
10348;BME280;5220;43.192;23.284;2023-07-30T04:28:39;96737.91;;;22.12;100.00
10348;BME280;5220;43.192;23.284;2023-07-30T04:31:06;96736.53;;;22.16;100.00
10348;BME280;5220;43.192;23.284;2023-07-30T04:33:32;96735.13;;;22.20;100.00
10348;BME280;5220;43.192;23.284;2023-07-30T04:35:59;96746.16;;;22.24;100.00
10348;BME280;5220;43.192;23.284;2023-07-30T04:38:26;96736.22;;;22.26;100.00
10348;BME280;5220;43.192;23.284;2023-07-30T04:40:53;96739.47;;;22.28;100.00
10348;BME280;5220;43.192;23.284;2023-07-30T04:43:19;96739.09;;;22.31;100.00
10348;BME280;5220;43.192;23.284;2023-07-30T04:45:47;96740.38;;;22.35;100.00
10348;BME280;5220;43.192;23.284;2023-07-30T04:48:14;96740.84;;;22.45;100.00
10348;BME280;5220;43.192;23.284;2023-07-30T04:50:41;96742.63;;;22.59;100.00
10348;BME280;5220;43.192;23.284;2023-07-30T04:53:08;96743.81;;;22.78;100.00
10348;BME280;5220;43.192;23.284;2023-07-30T04:55:35;96742.75;;;23.00;100.00
10348;BME280;5220;43.192;23.284;2023-07-30T04:58:01;96742.44;;;23.23;100.00
10348;BME280;5220;43.192;23.284;2023-07-30T05:00:28;96734.88;;;23.47;100.00
10348;BME280;5220;43.192;23.284;2023-07-30T05:02:57;96739.88;;;23.77;100.00
10348;BME280;5220;43.192;23.284;2023-07-30T05:05:23;96739.16;;;24.09;100.00
10348;BME280;5220;43.192;23.284;2023-07-30T05:07:50;96739.66;;;24.45;100.00
10348;BME280;5220;43.192;23.284;2023-07-30T05:10:17;96731.47;;;24.80;100.00
10348;BME280;5220;43.192;23.284;2023-07-30T05:12:43;96730.81;;;25.17;100.00
10348;BME280;5220;43.192;23.284;2023-07-30T05:15:10;96742.44;;;25.55;100.00
10348;BME280;5220;43.192;23.284;2023-07-30T05:17:37;96735.25;;;25.94;100.00
10348;BME280;5220;43.192;23.284;2023-07-30T05:20:06;96730.56;;;26.34;100.00
10348;BME280;5220;43.192;23.284;2023-07-30T05:22:33;96731.66;;;26.76;100.00
10348;BME280;5220;43.192;23.284;2023-07-30T05:25:00;96734.34;;;27.18;100.00
10348;BME280;5220;43.192;23.284;2023-07-30T05:27:27;96735.75;;;27.64;100.00
10348;BME280;5220;43.192;23.284;2023-07-30T05:29:54;96735.63;;;28.07;100.00
10348;BME280;5220;43.192;23.284;2023-07-30T05:32:21;96729.22;;;28.49;98.49
10348;BME280;5220;43.192;23.284;2023-07-30T05:34:48;96730.47;;;28.88;90.96
10348;BME280;5220;43.192;23.284;2023-07-30T05:37:16;96726.63;;;29.30;85.35
10348;BME280;5220;43.192;23.284;2023-07-30T05:39:42;96733.19;;;29.74;82.35
10348;BME280;5220;43.192;23.284;2023-07-30T05:42:09;96737.19;;;30.12;80.71
10348;BME280;5220;43.192;23.284;2023-07-30T05:44:36;96742.19;;;30.48;71.44
10348;BME280;5220;43.192;23.284;2023-07-30T05:47:03;96731.44;;;30.81;72.02
10348;BME280;5220;43.192;23.284;2023-07-30T05:49:30;96735.66;;;31.11;65.67
10348;BME280;5220;43.192;23.284;2023-07-30T05:51:56;96739.72;;;31.30;66.75
10348;BME280;5220;43.192;23.284;2023-07-30T05:54:24;96738.72;;;31.36;65.15
10348;BME280;5220;43.192;23.284;2023-07-30T05:56:51;96738.34;;;31.27;60.70
10348;BME280;5220;43.192;23.284;2023-07-30T05:59:19;96742.34;;;31.08;52.79
10348;BME280;5220;43.192;23.284;2023-07-30T06:01:46;96744.44;;;30.89;57.83
10348;BME280;5220;43.192;23.284;2023-07-30T06:04:13;96740.88;;;30.67;58.82
10348;BME280;5220;43.192;23.284;2023-07-30T06:06:39;96738.56;;;30.43;61.44
10348;BME280;5220;43.192;23.284;2023-07-30T06:09:06;96745.00;;;30.13;55.92
10348;BME280;5220;43.192;23.284;2023-07-30T06:11:34;96739.16;;;29.88;54.24
10348;BME280;5220;43.192;23.284;2023-07-30T06:14:01;96747.00;;;29.66;59.99
10348;BME280;5220;43.192;23.284;2023-07-30T06:16:28;96742.13;;;29.40;59.41
10348;BME280;5220;43.192;23.284;2023-07-30T06:18:55;96743.53;;;29.08;63.41
10348;BME280;5220;43.192;23.284;2023-07-30T06:21:21;96734.88;;;28.71;61.00
10348;BME280;5220;43.192;23.284;2023-07-30T06:23:48;96738.16;;;28.32;64.01
10348;BME280;5220;43.192;23.284;2023-07-30T06:26:15;96733.91;;;28.54;65.31
10348;BME280;5220;43.192;23.284;2023-07-30T06:28:43;96732.16;;;28.59;70.23
10348;BME280;5220;43.192;23.284;2023-07-30T06:31:10;96739.97;;;28.61;69.80
10348;BME280;5220;43.192;23.284;2023-07-30T06:33:37;96734.91;;;28.41;64.48
10348;BME280;5220;43.192;23.284;2023-07-30T06:36:04;96733.31;;;28.52;60.20
10348;BME280;5220;43.192;23.284;2023-07-30T06:38:30;96733.47;;;28.68;63.58
10348;BME280;5220;43.192;23.284;2023-07-30T06:40:57;96731.53;;;28.75;59.25
10348;BME280;5220;43.192;23.284;2023-07-30T06:43:25;96724.19;;;28.83;60.54
10348;BME280;5220;43.192;23.284;2023-07-30T06:45:53;96731.31;;;28.89;63.88
10348;BME280;5220;43.192;23.284;2023-07-30T06:48:21;96718.94;;;28.88;62.74
10348;BME280;5220;43.192;23.284;2023-07-30T06:50:48;96721.97;;;29.03;63.82
10348;BME280;5220;43.192;23.284;2023-07-30T06:53:15;96717.88;;;29.12;62.35
10348;BME280;5220;43.192;23.284;2023-07-30T06:55:42;96719.63;;;29.18;64.86
10348;BME280;5220;43.192;23.284;2023-07-30T06:58:09;96709.41;;;29.03;59.58
10348;BME280;5220;43.192;23.284;2023-07-30T07:00:37;96712.19;;;29.08;59.51
10348;BME280;5220;43.192;23.284;2023-07-30T07:03:05;96708.81;;;29.13;60.55
10348;BME280;5220;43.192;23.284;2023-07-30T07:05:32;96714.06;;;29.31;59.34
10348;BME280;5220;43.192;23.284;2023-07-30T07:07:59;96713.81;;;29.44;60.01
10348;BME280;5220;43.192;23.284;2023-07-30T07:10:27;96712.44;;;29.42;55.87
10348;BME280;5220;43.192;23.284;2023-07-30T07:12:55;96710.19;;;29.50;56.53
10348;BME280;5220;43.192;23.284;2023-07-30T07:15:22;96703.75;;;29.63;58.07
10348;BME280;5220;43.192;23.284;2023-07-30T07:17:50;96706.66;;;29.61;58.00
10348;BME280;5220;43.192;23.284;2023-07-30T07:20:19;96712.34;;;29.65;57.75
10348;BME280;5220;43.192;23.284;2023-07-30T07:22:46;96702.22;;;29.67;53.16
10348;BME280;5220;43.192;23.284;2023-07-30T07:25:13;96702.41;;;29.77;50.14
10348;BME280;5220;43.192;23.284;2023-07-30T07:27:43;96697.19;;;29.82;51.40
10348;BME280;5220;43.192;23.284;2023-07-30T07:30:11;96698.66;;;29.90;49.47
10348;BME280;5220;43.192;23.284;2023-07-30T07:32:37;96698.66;;;29.90;50.59
10348;BME280;5220;43.192;23.284;2023-07-30T07:35:05;96693.06;;;29.91;50.02
10348;BME280;5220;43.192;23.284;2023-07-30T07:37:34;96682.59;;;30.06;48.76
10348;BME280;5220;43.192;23.284;2023-07-30T07:40:00;96683.50;;;29.95;49.01
10348;BME280;5220;43.192;23.284;2023-07-30T07:42:28;96677.47;;;30.05;50.46
10348;BME280;5220;43.192;23.284;2023-07-30T07:44:55;96682.28;;;30.03;50.98
10348;BME280;5220;43.192;23.284;2023-07-30T07:47:22;96684.41;;;29.89;49.22
10348;BME280;5220;43.192;23.284;2023-07-30T07:49:49;96684.53;;;29.94;51.40
10348;BME280;5220;43.192;23.284;2023-07-30T07:52:15;96680.25;;;30.10;51.85
10348;BME280;5220;43.192;23.284;2023-07-30T07:54:44;96675.63;;;30.22;51.61
10348;BME280;5220;43.192;23.284;2023-07-30T07:57:10;96681.72;;;30.17;51.38
10348;BME280;5220;43.192;23.284;2023-07-30T07:59:37;96679.78;;;30.13;51.35
10348;BME280;5220;43.192;23.284;2023-07-30T08:02:04;96668.88;;;30.36;51.42
10348;BME280;5220;43.192;23.284;2023-07-30T08:04:31;96677.16;;;30.46;50.62
10348;BME280;5220;43.192;23.284;2023-07-30T08:06:58;96667.81;;;30.20;50.29
10348;BME280;5220;43.192;23.284;2023-07-30T08:09:28;96668.22;;;30.12;48.70
10348;BME280;5220;43.192;23.284;2023-07-30T08:11:56;96670.88;;;30.41;48.57
10348;BME280;5220;43.192;23.284;2023-07-30T08:14:23;96673.00;;;30.55;46.68
10348;BME280;5220;43.192;23.284;2023-07-30T08:16:50;96676.56;;;30.61;47.84
10348;BME280;5220;43.192;23.284;2023-07-30T08:19:17;96669.34;;;30.78;44.22
10348;BME280;5220;43.192;23.284;2023-07-30T08:21:43;96663.69;;;30.79;44.24
10348;BME280;5220;43.192;23.284;2023-07-30T08:24:10;96668.28;;;30.96;46.15
10348;BME280;5220;43.192;23.284;2023-07-30T08:26:37;96663.53;;;30.86;43.82
10348;BME280;5220;43.192;23.284;2023-07-30T08:29:05;96661.50;;;30.93;43.36
10348;BME280;5220;43.192;23.284;2023-07-30T08:31:35;96664.69;;;30.73;41.35
10348;BME280;5220;43.192;23.284;2023-07-30T08:34:02;96656.38;;;30.91;40.79
10348;BME280;5220;43.192;23.284;2023-07-30T08:36:28;96655.97;;;31.00;41.95
10348;BME280;5220;43.192;23.284;2023-07-30T08:38:55;96658.88;;;31.15;43.25
10348;BME280;5220;43.192;23.284;2023-07-30T08:41:22;96651.44;;;31.22;44.43
10348;BME280;5220;43.192;23.284;2023-07-30T08:43:48;96646.06;;;31.22;44.28
10348;BME280;5220;43.192;23.284;2023-07-30T08:46:18;96651.25;;;31.28;44.31
10348;BME280;5220;43.192;23.284;2023-07-30T08:48:45;96648.19;;;31.20;44.93
10348;BME280;5220;43.192;23.284;2023-07-30T08:51:12;96653.50;;;31.36;44.53
10348;BME280;5220;43.192;23.284;2023-07-30T08:53:39;96652.97;;;31.56;44.98
10348;BME280;5220;43.192;23.284;2023-07-30T08:56:08;96654.16;;;31.05;45.12
10348;BME280;5220;43.192;23.284;2023-07-30T08:58:36;96644.28;;;31.11;47.43
10348;BME280;5220;43.192;23.284;2023-07-30T09:01:09;96656.56;;;31.23;44.66
10348;BME280;5220;43.192;23.284;2023-07-30T09:03:38;96649.81;;;31.42;44.32
10348;BME280;5220;43.192;23.284;2023-07-30T09:06:05;96651.84;;;31.52;42.84
10348;BME280;5220;43.192;23.284;2023-07-30T09:08:32;96653.09;;;31.66;42.95
10348;BME280;5220;43.192;23.284;2023-07-30T09:11:06;96654.19;;;31.70;43.50
10348;BME280;5220;43.192;23.284;2023-07-30T09:13:36;96648.25;;;31.68;43.91
10348;BME280;5220;43.192;23.284;2023-07-30T09:16:08;96653.00;;;31.61;43.71
10348;BME280;5220;43.192;23.284;2023-07-30T09:18:40;96654.16;;;31.65;44.95
10348;BME280;5220;43.192;23.284;2023-07-30T09:21:07;96644.94;;;31.61;44.15
10348;BME280;5220;43.192;23.284;2023-07-30T09:23:39;96638.88;;;31.71;44.23
10348;BME280;5220;43.192;23.284;2023-07-30T09:26:05;96645.06;;;31.71;43.01
10348;BME280;5220;43.192;23.284;2023-07-30T09:28:32;96642.25;;;31.61;41.51
10348;BME280;5220;43.192;23.284;2023-07-30T09:31:00;96641.25;;;31.67;42.15
10348;BME280;5220;43.192;23.284;2023-07-30T09:33:27;96637.03;;;31.76;43.98
10348;BME280;5220;43.192;23.284;2023-07-30T09:35:55;96633.91;;;31.84;42.76
10348;BME280;5220;43.192;23.284;2023-07-30T09:38:22;96640.97;;;31.90;43.26
10348;BME280;5220;43.192;23.284;2023-07-30T09:40:49;96637.03;;;31.76;42.19
10348;BME280;5220;43.192;23.284;2023-07-30T09:43:16;96630.56;;;31.72;42.14
10348;BME280;5220;43.192;23.284;2023-07-30T09:45:45;96637.22;;;31.70;42.29
10348;BME280;5220;43.192;23.284;2023-07-30T09:48:13;96634.25;;;31.66;44.07
10348;BME280;5220;43.192;23.284;2023-07-30T09:50:41;96630.88;;;31.76;43.96
10348;BME280;5220;43.192;23.284;2023-07-30T09:53:13;96642.13;;;31.51;44.15
10348;BME280;5220;43.192;23.284;2023-07-30T09:55:41;96631.66;;;31.50;44.90
10348;BME280;5220;43.192;23.284;2023-07-30T09:58:07;96618.53;;;31.36;44.34
10348;BME280;5220;43.192;23.284;2023-07-30T10:00:36;96625.28;;;31.39;46.24
10348;BME280;5220;43.192;23.284;2023-07-30T10:03:04;96618.22;;;31.33;44.37
10348;BME280;5220;43.192;23.284;2023-07-30T10:05:33;96608.97;;;31.45;45.87
10348;BME280;5220;43.192;23.284;2023-07-30T10:08:02;96612.66;;;31.39;45.10
10348;BME280;5220;43.192;23.284;2023-07-30T10:10:32;96610.78;;;31.40;45.92
10348;BME280;5220;43.192;23.284;2023-07-30T10:13:03;96603.69;;;31.51;44.47
10348;BME280;5220;43.192;23.284;2023-07-30T10:15:33;96602.72;;;31.62;44.09
10348;BME280;5220;43.192;23.284;2023-07-30T10:18:01;96599.13;;;31.78;43.31
10348;BME280;5220;43.192;23.284;2023-07-30T10:20:28;96585.72;;;31.83;43.73
10348;BME280;5220;43.192;23.284;2023-07-30T10:22:56;96583.97;;;31.98;42.27
10348;BME280;5220;43.192;23.284;2023-07-30T10:25:30;96586.34;;;31.90;43.78
10348;BME280;5220;43.192;23.284;2023-07-30T10:28:11;96587.66;;;31.87;44.26
10348;BME280;5220;43.192;23.284;2023-07-30T10:30:56;96583.84;;;31.83;43.17
10348;BME280;5220;43.192;23.284;2023-07-30T10:33:22;96578.56;;;31.93;43.75
10348;BME280;5220;43.192;23.284;2023-07-30T10:35:54;96568.41;;;31.74;43.64
10348;BME280;5220;43.192;23.284;2023-07-30T10:38:27;96569.03;;;31.81;44.69
10348;BME280;5220;43.192;23.284;2023-07-30T10:41:05;96576.19;;;31.97;42.33
10348;BME280;5220;43.192;23.284;2023-07-30T10:43:36;96567.19;;;32.13;42.66
10348;BME280;5220;43.192;23.284;2023-07-30T10:46:03;96571.03;;;32.22;42.71
10348;BME280;5220;43.192;23.284;2023-07-30T10:48:33;96559.53;;;32.32;42.80
10348;BME280;5220;43.192;23.284;2023-07-30T10:51:02;96559.56;;;32.37;43.68
10348;BME280;5220;43.192;23.284;2023-07-30T10:53:29;96554.19;;;32.42;41.86
10348;BME280;5220;43.192;23.284;2023-07-30T10:55:58;96559.97;;;32.19;43.62
10348;BME280;5220;43.192;23.284;2023-07-30T10:58:27;96552.66;;;32.14;42.89
10348;BME280;5220;43.192;23.284;2023-07-30T11:00:55;96549.94;;;32.09;42.55
10348;BME280;5220;43.192;23.284;2023-07-30T11:03:24;96545.41;;;32.20;42.01
10348;BME280;5220;43.192;23.284;2023-07-30T11:05:51;96540.03;;;32.20;42.75
10348;BME280;5220;43.192;23.284;2023-07-30T11:08:18;96539.28;;;32.24;46.08
10348;BME280;5220;43.192;23.284;2023-07-30T11:10:46;96536.34;;;32.31;44.18
10348;BME280;5220;43.192;23.284;2023-07-30T11:13:13;96528.63;;;32.44;41.42
10348;BME280;5220;43.192;23.284;2023-07-30T11:15:41;96535.75;;;32.61;43.97
10348;BME280;5220;43.192;23.284;2023-07-30T11:18:11;96530.41;;;32.66;41.22
10348;BME280;5220;43.192;23.284;2023-07-30T11:20:38;96527.72;;;32.66;40.86
10348;BME280;5220;43.192;23.284;2023-07-30T11:23:18;96534.41;;;32.63;41.62
10348;BME280;5220;43.192;23.284;2023-07-30T11:25:47;96519.94;;;32.69;40.40
10348;BME280;5220;43.192;23.284;2023-07-30T11:28:15;96519.06;;;32.59;43.22
10348;BME280;5220;43.192;23.284;2023-07-30T11:30:42;96520.69;;;32.65;41.51
10348;BME280;5220;43.192;23.284;2023-07-30T11:33:15;96520.19;;;32.68;42.46
10348;BME280;5220;43.192;23.284;2023-07-30T11:35:42;96515.59;;;32.68;41.52
10348;BME280;5220;43.192;23.284;2023-07-30T11:38:09;96520.69;;;32.60;41.44
10348;BME280;5220;43.192;23.284;2023-07-30T11:40:36;96515.03;;;32.61;42.39
10348;BME280;5220;43.192;23.284;2023-07-30T11:43:04;96507.53;;;32.68;40.73
10348;BME280;5220;43.192;23.284;2023-07-30T11:45:31;96502.13;;;32.68;41.29
10348;BME280;5220;43.192;23.284;2023-07-30T11:48:06;96510.00;;;32.80;41.48
10348;BME280;5220;43.192;23.284;2023-07-30T11:50:44;96510.00;;;32.80;41.29
10348;BME280;5220;43.192;23.284;2023-07-30T11:53:11;96499.69;;;32.67;42.23
10348;BME280;5220;43.192;23.284;2023-07-30T11:55:38;96497.81;;;32.67;41.21
10348;BME280;5220;43.192;23.284;2023-07-30T11:58:05;96497.56;;;32.69;41.99
10348;BME280;5220;43.192;23.284;2023-07-30T12:00:32;96498.03;;;32.61;42.28
10348;BME280;5220;43.192;23.284;2023-07-30T12:03:02;96481.41;;;32.74;41.76
10348;BME280;5220;43.192;23.284;2023-07-30T12:05:32;96481.34;;;32.64;42.26
10348;BME280;5220;43.192;23.284;2023-07-30T12:08:01;96477.34;;;32.71;41.51
10348;BME280;5220;43.192;23.284;2023-07-30T12:10:41;96474.94;;;32.75;41.63
10348;BME280;5220;43.192;23.284;2023-07-30T12:13:11;96467.34;;;32.62;42.53
10348;BME280;5220;43.192;23.284;2023-07-30T12:15:38;96463.34;;;32.69;41.47
10348;BME280;5220;43.192;23.284;2023-07-30T12:18:05;96465.00;;;32.75;42.28
10348;BME280;5220;43.192;23.284;2023-07-30T12:20:31;96460.66;;;32.74;41.34
10348;BME280;5220;43.192;23.284;2023-07-30T12:22:58;96460.66;;;32.69;42.07
10348;BME280;5220;43.192;23.284;2023-07-30T12:25:26;96447.47;;;32.83;41.44
10348;BME280;5220;43.192;23.284;2023-07-30T12:27:53;96443.16;;;32.77;42.32
10348;BME280;5220;43.192;23.284;2023-07-30T12:30:20;96453.78;;;32.52;43.41
10348;BME280;5220;43.192;23.284;2023-07-30T12:32:46;96447.19;;;32.69;42.84
10348;BME280;5220;43.192;23.284;2023-07-30T12:35:13;96455.47;;;32.58;43.80
10348;BME280;5220;43.192;23.284;2023-07-30T12:37:40;96446.66;;;32.77;42.01
10348;BME280;5220;43.192;23.284;2023-07-30T12:40:08;96439.69;;;32.91;42.69
10348;BME280;5220;43.192;23.284;2023-07-30T12:42:36;96442.66;;;32.90;42.02
10348;BME280;5220;43.192;23.284;2023-07-30T12:45:03;96435.34;;;32.85;42.15
10348;BME280;5220;43.192;23.284;2023-07-30T12:47:30;96431.28;;;32.68;43.02
10348;BME280;5220;43.192;23.284;2023-07-30T12:49:57;96435.34;;;32.80;42.90
10348;BME280;5220;43.192;23.284;2023-07-30T12:52:24;96439.50;;;32.51;42.95
10348;BME280;5220;43.192;23.284;2023-07-30T12:54:50;96441.75;;;32.59;44.36
10348;BME280;5220;43.192;23.284;2023-07-30T12:57:17;96432.03;;;32.63;43.29